createdAt,value
2024-04-08T10:59:35.267Z,3.43
2024-04-08T11:02:38.936Z,4.70
2024-04-08T11:05:31.465Z,3.63
2024-04-08T11:08:28.947Z,3.20
2024-04-08T11:11:33.149Z,3.00
2024-04-08T11:17:37.200Z,3.03
2024-04-08T11:20:34.619Z,3.58
2024-04-08T11:23:51.166Z,3.28
2024-04-08T11:26:59.196Z,3.78
2024-04-08T11:30:01.066Z,3.08
2024-04-08T11:32:56.303Z,2.92
2024-04-08T11:35:51.964Z,3.33
2024-04-08T11:38:52.662Z,4.07
2024-04-08T11:41:52.035Z,3.17
2024-04-08T11:45:09.590Z,3.10
2024-04-08T11:48:10.555Z,4.07
2024-04-08T11:51:05.803Z,3.63
2024-04-08T11:54:09.559Z,3.65
2024-04-08T11:57:06.855Z,3.40
2024-04-08T12:00:08.935Z,3.47
2024-04-08T12:03:06.306Z,3.60
2024-04-08T12:06:11.741Z,3.60
2024-04-08T12:09:09.493Z,4.20
2024-04-08T12:12:03.859Z,4.15
2024-04-08T12:14:58.862Z,3.88
2024-04-08T12:17:56.692Z,4.03
2024-04-08T12:20:53.671Z,3.63
2024-04-08T12:24:04.166Z,3.33
2024-04-08T12:26:58.391Z,3.60
2024-04-08T12:30:01.496Z,4.18
2024-04-08T12:33:04.779Z,3.75
2024-04-08T12:36:08.191Z,3.40
2024-04-08T12:39:04.695Z,2.87
2024-04-08T12:42:10.855Z,3.60
2024-04-08T12:45:14.944Z,3.28
2024-04-08T12:48:19.421Z,3.70
2024-04-08T12:51:19.097Z,3.95
2024-04-08T12:54:16.632Z,3.08
2024-04-08T12:57:15.046Z,3.63
2024-04-08T13:00:11.919Z,3.13
2024-04-08T13:03:11.774Z,3.72
2024-04-08T13:06:18.531Z,3.53
2024-04-08T13:09:16.805Z,3.30
2024-04-08T13:12:16.922Z,3.72
2024-04-08T13:15:19.969Z,3.50
2024-04-08T13:18:20.692Z,3.53
2024-04-08T13:21:21.099Z,3.33
2024-04-08T13:24:15.559Z,3.03
2024-04-08T13:27:12.676Z,4.05
2024-04-08T13:30:07.054Z,2.88
2024-04-08T13:33:04.555Z,3.17
2024-04-08T13:36:16.237Z,3.45
2024-04-08T13:39:12.249Z,3.38
2024-04-08T13:42:13.966Z,2.92
2024-04-08T13:45:12.255Z,3.03
2024-04-08T13:48:07.236Z,3.00
2024-04-08T13:51:07.396Z,2.97
2024-04-08T13:54:06.145Z,2.90
2024-04-08T13:57:13.471Z,3.03
2024-04-08T14:00:13.894Z,3.30
2024-04-08T14:03:16.772Z,3.42
2024-04-08T14:06:21.931Z,3.40
2024-04-08T14:09:19.483Z,2.95
2024-04-08T14:12:19.952Z,2.60
2024-04-08T14:15:21.991Z,3.53
2024-04-08T14:18:19.601Z,3.00
2024-04-08T14:21:18.429Z,3.63
2024-04-08T14:24:24.469Z,3.83
2024-04-08T14:27:21.894Z,2.67
2024-04-08T14:30:21.935Z,2.88
2024-04-08T14:33:28.592Z,4.40
2024-04-08T14:36:33.064Z,2.72
2024-04-08T14:39:36.625Z,3.58
2024-04-08T14:42:35.931Z,3.38
2024-04-08T14:45:34.018Z,3.05
2024-04-08T14:48:39.249Z,3.08
2024-04-08T14:51:41.393Z,3.17
2024-04-08T14:54:40.854Z,3.13
2024-04-08T14:58:04.235Z,2.92
2024-04-08T15:01:12.853Z,2.83
2024-04-08T15:04:13.064Z,3.33
2024-04-08T15:10:28.399Z,3.40
2024-04-08T15:13:33.438Z,2.95
2024-04-08T15:16:51.188Z,3.53
2024-04-08T15:19:51.283Z,3.28
2024-04-08T15:23:13.107Z,3.15
2024-04-08T15:26:28.718Z,3.40
2024-04-08T15:29:49.687Z,3.15
2024-04-08T15:33:11.491Z,3.03
2024-04-08T15:36:54.247Z,2.63
2024-04-08T15:40:34.059Z,3.08
2024-04-08T15:43:48.942Z,2.95
2024-04-08T15:47:09.354Z,3.17
2024-04-08T15:54:53.997Z,2.75
2024-04-08T15:57:57.602Z,2.63
2024-04-08T16:01:15.517Z,3.85
2024-04-08T16:04:17.516Z,3.35
2024-04-08T16:07:20.935Z,3.15
2024-04-08T16:10:23.027Z,2.90
2024-04-08T16:13:20.226Z,3.05
2024-04-08T16:16:20.576Z,3.28
2024-04-08T16:19:16.566Z,3.92
2024-04-08T16:22:24.214Z,3.10
2024-04-08T16:25:27.769Z,2.72
2024-04-08T16:28:54.106Z,3.63
2024-04-08T16:31:55.288Z,3.22
2024-04-08T16:34:54.065Z,3.33
2024-04-08T16:37:57.931Z,3.08
2024-04-08T16:41:04.151Z,3.47
2024-04-08T16:44:17.134Z,3.00
2024-04-08T16:47:14.805Z,3.50
2024-04-08T16:50:13.673Z,3.20
2024-04-08T16:53:15.494Z,3.28
2024-04-08T16:56:23.173Z,3.05
2024-04-08T16:59:29.623Z,2.97
2024-04-08T17:02:37.561Z,3.83
2024-04-08T17:05:37.765Z,3.08
2024-04-08T17:08:41.992Z,3.25
2024-04-08T17:11:39.424Z,3.63
2024-04-08T17:14:42.242Z,3.30
2024-04-08T17:17:39.312Z,4.00
2024-04-08T17:20:45.019Z,3.40
2024-04-08T17:23:44.936Z,4.35
2024-04-08T17:26:46.251Z,3.97
2024-04-08T17:29:56.162Z,4.05
2024-04-08T17:33:20.281Z,4.28
2024-04-08T17:36:46.674Z,4.95
2024-04-08T17:40:22.812Z,3.92
2024-04-08T17:43:21.911Z,5.03
2024-04-08T17:46:35.469Z,4.32
2024-04-08T17:49:41.164Z,4.90
2024-04-08T17:53:12.118Z,4.28
2024-04-08T17:56:25.439Z,4.47
2024-04-08T18:00:05.116Z,3.58
2024-04-08T18:03:19.031Z,4.97
2024-04-08T18:09:17.548Z,4.05
2024-04-08T18:12:36.851Z,4.50
2024-04-08T18:16:33.252Z,4.05
2024-04-08T18:19:36.384Z,6.70
2024-04-08T18:22:42.809Z,4.32
2024-04-08T18:26:02.905Z,4.38
2024-04-08T18:29:56.220Z,4.95
2024-04-08T18:46:57.997Z,5.80
2024-04-08T18:59:08.955Z,5.50
2024-04-08T19:07:44.710Z,6.20
2024-04-08T22:49:04.935Z,6.18
